Time;durP1;ratioP1;P1;durP2;ratioP2;P2;SDS_P1;SDS_P2;PMS_P1;PMS_P2;Temp;Humidity;BMP_temperature;BMP_pressure;BME280_temperature;BME280_humidity;BME280_pressure;Samples;Min_cycle;Max_cycle;Signal;HPM_P1;HPM_P2
2023/12/04 00:01:22;;;;;;;25.97;16.07;;;0.20;99.90;;;;;;5135041;27;20227;-67
2023/12/04 00:03:47;;;;;;;18.80;15.30;;;0.20;99.90;;;;;;5135125;27;20654;-66
2023/12/04 00:06:13;;;;;;;22.10;16.53;;;0.20;99.90;;;;;;5116705;27;20176;-67
2023/12/04 00:08:40;;;;;;;22.13;15.73;;;0.20;99.90;;;;;;5134988;27;20661;-67
2023/12/04 00:11:06;;;;;;;21.40;15.90;;;0.20;99.90;;;;;;5134937;27;20168;-67
2023/12/04 00:13:33;;;;;;;27.23;15.73;;;0.20;99.90;;;;;;5135226;27;20167;-67
2023/12/04 00:15:59;;;;;;;26.63;16.13;;;0.30;99.90;;;;;;5116514;27;20179;-67
2023/12/04 00:18:24;;;;;;;21.50;16.07;;;0.30;99.90;;;;;;5116348;27;20200;-66
2023/12/04 00:20:50;;;;;;;21.80;16.87;;;0.30;99.90;;;;;;5134932;27;20190;-67
2023/12/04 00:23:16;;;;;;;21.10;15.20;;;0.40;99.90;;;;;;5135200;27;20630;-68
2023/12/04 00:25:42;;;;;;;22.63;15.57;;;0.40;99.90;;;;;;5134731;27;20252;-67
2023/12/04 00:28:07;;;;;;;22.20;15.40;;;0.40;99.90;;;;;;5116159;27;20200;-67
2023/12/04 00:30:33;;;;;;;22.10;17.20;;;0.40;99.90;;;;;;5134616;27;20715;-66
2023/12/04 00:32:59;;;;;;;22.17;15.20;;;0.40;99.90;;;;;;5135373;27;20679;-67
2023/12/04 00:35:25;;;;;;;21.13;16.07;;;0.40;99.90;;;;;;5134273;27;20199;-67
2023/12/04 00:37:51;;;;;;;21.73;16.10;;;0.40;99.90;;;;;;5134537;27;20670;-66
2023/12/04 00:40:16;;;;;;;19.13;15.20;;;0.40;99.90;;;;;;5134394;27;20591;-67
2023/12/04 00:42:42;;;;;;;17.47;14.33;;;0.40;99.90;;;;;;5134444;27;20164;-67
2023/12/04 00:45:09;;;;;;;17.20;14.27;;;0.50;99.90;;;;;;5134229;27;20566;-67
2023/12/04 00:47:34;;;;;;;20.17;15.93;;;0.50;99.90;;;;;;5134206;27;20702;-67
2023/12/04 00:50:00;;;;;;;19.17;15.03;;;0.50;99.90;;;;;;5134076;27;20172;-67
2023/12/04 00:52:26;;;;;;;19.57;15.23;;;0.60;99.90;;;;;;5133537;27;20176;-67
2023/12/04 00:54:52;;;;;;;21.50;14.87;;;0.60;99.90;;;;;;5115732;27;20623;-67
2023/12/04 00:57:17;;;;;;;16.00;14.03;;;0.60;99.90;;;;;;5115774;27;20195;-67
2023/12/04 00:59:43;;;;;;;18.33;14.97;;;0.70;99.90;;;;;;5134598;27;20207;-67
2023/12/04 01:02:09;;;;;;;18.40;15.37;;;0.70;99.90;;;;;;5134222;27;20179;-67
2023/12/04 01:04:35;;;;;;;18.03;15.60;;;0.70;99.90;;;;;;5134129;27;20662;-66
2023/12/04 01:07:01;;;;;;;16.77;14.27;;;0.70;99.90;;;;;;5134295;28;20666;-67
2023/12/04 01:09:27;;;;;;;16.63;14.90;;;0.70;99.90;;;;;;5116512;28;20538;-66
2023/12/04 01:11:54;;;;;;;17.80;14.20;;;0.70;99.90;;;;;;5115853;28;20176;-67
2023/12/04 01:14:20;;;;;;;16.57;13.83;;;0.80;99.90;;;;;;5134526;28;20677;-66
2023/12/04 01:16:47;;;;;;;16.60;13.73;;;0.80;99.90;;;;;;5134501;28;20585;-67
2023/12/04 01:19:13;;;;;;;17.97;13.33;;;0.80;99.90;;;;;;5115363;28;20650;-67
2023/12/04 01:21:38;;;;;;;19.40;14.60;;;0.80;99.90;;;;;;5134065;28;20208;-67
2023/12/04 01:24:04;;;;;;;17.77;13.77;;;0.90;99.90;;;;;;5134472;28;20238;-67
2023/12/04 01:26:30;;;;;;;17.97;13.73;;;0.90;99.90;;;;;;5133891;28;20209;-66
2023/12/04 01:28:56;;;;;;;18.73;15.10;;;0.90;99.90;;;;;;5133845;28;20172;-67
2023/12/04 01:31:22;;;;;;;18.87;13.97;;;0.90;99.90;;;;;;5134461;28;20529;-67
2023/12/04 01:33:48;;;;;;;18.43;14.17;;;0.90;99.90;;;;;;5134082;28;20562;-67
2023/12/04 01:36:14;;;;;;;16.10;13.70;;;0.90;99.90;;;;;;5133639;28;20195;-67
2023/12/04 01:38:39;;;;;;;16.63;14.67;;;0.90;99.90;;;;;;5133762;28;20195;-66
2023/12/04 01:41:06;;;;;;;14.33;12.60;;;0.90;99.90;;;;;;5133836;28;20672;-66
2023/12/04 01:43:32;;;;;;;16.13;13.77;;;0.90;99.90;;;;;;5133745;28;20251;-66
2023/12/04 01:46:00;;;;;;;15.20;13.40;;;0.90;99.90;;;;;;5133836;28;20188;-67
2023/12/04 01:48:28;;;;;;;18.83;14.53;;;1.00;99.90;;;;;;5115267;28;20275;-67
2023/12/04 01:50:55;;;;;;;15.77;13.50;;;1.00;99.90;;;;;;5133593;28;20167;-67
2023/12/04 01:53:21;;;;;;;15.13;13.07;;;1.00;99.90;;;;;;5115233;28;20183;-67
2023/12/04 01:55:48;;;;;;;16.17;13.07;;;1.00;99.90;;;;;;5115222;28;20222;-67
2023/12/04 01:58:14;;;;;;;18.70;14.07;;;1.00;99.90;;;;;;5115085;28;20665;-67
2023/12/04 02:00:40;;;;;;;16.53;13.73;;;1.10;99.90;;;;;;5133555;28;20251;-67
2023/12/04 02:03:07;;;;;;;17.90;13.77;;;1.00;99.90;;;;;;5116964;27;20172;-68
2023/12/04 02:05:34;;;;;;;16.30;13.53;;;1.00;99.90;;;;;;5137222;27;20172;-67
2023/12/04 02:08:01;;;;;;;15.37;13.20;;;1.00;99.90;;;;;;5118790;27;20203;-67
2023/12/04 02:10:27;;;;;;;18.23;13.47;;;1.00;99.90;;;;;;5137288;27;20203;-67
2023/12/04 02:12:52;;;;;;;16.40;13.67;;;1.10;99.90;;;;;;5137594;27;20218;-67
2023/12/04 02:15:18;;;;;;;17.83;13.87;;;1.10;99.90;;;;;;5137404;27;20207;-67
2023/12/04 02:17:44;;;;;;;15.17;13.57;;;1.10;99.90;;;;;;5137922;27;20267;-67
2023/12/04 02:20:14;;;;;;;15.43;12.70;;;1.10;99.90;;;;;;5137219;27;20669;-67
2023/12/04 02:22:39;;;;;;;15.07;13.50;;;1.10;99.90;;;;;;5137128;27;20175;-67
2023/12/04 02:25:07;;;;;;;14.63;12.27;;;1.10;99.90;;;;;;5137117;27;20176;-68
2023/12/04 02:27:49;;;;;;;14.67;13.07;;;1.10;99.90;;;;;;5118542;27;20256;-67
2023/12/04 02:30:18;;;;;;;15.77;12.97;;;1.10;99.90;;;;;;5137206;27;20175;-67
2023/12/04 02:32:47;;;;;;;15.80;13.23;;;1.10;99.90;;;;;;5137209;27;20168;-67
2023/12/04 02:35:15;;;;;;;14.13;12.53;;;1.10;99.90;;;;;;5136779;27;20224;-67
2023/12/04 02:37:42;;;;;;;14.30;12.60;;;1.10;99.90;;;;;;5136714;27;20194;-67
2023/12/04 02:40:10;;;;;;;16.80;12.63;;;1.20;99.90;;;;;;5118397;27;20188;-67
2023/12/04 02:42:36;;;;;;;15.13;12.70;;;1.10;99.90;;;;;;5137023;27;20168;-67
2023/12/04 02:45:01;;;;;;;13.40;12.07;;;1.10;99.90;;;;;;5136477;27;20248;-67
2023/12/04 02:47:27;;;;;;;15.83;12.77;;;1.10;99.90;;;;;;5136764;27;20225;-67
2023/12/04 02:49:53;;;;;;;15.30;12.70;;;1.10;99.90;;;;;;5136264;27;20665;-67
2023/12/04 02:52:19;;;;;;;14.43;13.03;;;1.10;99.90;;;;;;5136410;27;20183;-67
2023/12/04 02:54:44;;;;;;;15.43;12.33;;;1.10;99.90;;;;;;5136610;27;20195;-67
2023/12/04 02:57:11;;;;;;;14.53;12.43;;;1.10;99.90;;;;;;5136208;27;20306;-67
2023/12/04 02:59:37;;;;;;;15.10;12.43;;;1.10;99.90;;;;;;5117961;27;20259;-67
2023/12/04 03:02:03;;;;;;;17.57;12.53;;;1.20;99.90;;;;;;5136813;27;20525;-67
2023/12/04 03:04:29;;;;;;;13.47;12.17;;;1.20;99.90;;;;;;5117434;27;20179;-67
2023/12/04 03:06:56;;;;;;;15.30;11.83;;;1.20;99.90;;;;;;5136152;27;20199;-68
2023/12/04 03:09:22;;;;;;;13.67;11.93;;;1.20;99.90;;;;;;5136300;27;20179;-68
2023/12/04 03:11:47;;;;;;;13.70;12.27;;;1.20;99.90;;;;;;5136335;27;20193;-68
2023/12/04 03:14:14;;;;;;;13.83;12.23;;;1.20;99.90;;;;;;5135160;27;20221;-68
2023/12/04 03:16:39;;;;;;;13.60;12.27;;;1.20;99.90;;;;;;5135926;27;20522;-68
2023/12/04 03:19:05;;;;;;;13.17;11.77;;;1.10;99.90;;;;;;5136030;27;20183;-68
2023/12/04 03:21:31;;;;;;;13.90;12.60;;;1.20;99.90;;;;;;5135749;27;20178;-68
2023/12/04 03:23:57;;;;;;;12.60;11.27;;;1.20;99.90;;;;;;5136467;27;20653;-68
2023/12/04 03:26:22;;;;;;;13.80;11.90;;;1.10;99.90;;;;;;5117432;27;20195;-67
2023/12/04 03:28:48;;;;;;;13.13;11.50;;;1.10;99.90;;;;;;5136173;27;20184;-67
2023/12/04 03:31:14;;;;;;;12.80;11.50;;;1.10;99.90;;;;;;5135716;27;20176;-67
2023/12/04 03:33:40;;;;;;;12.47;11.17;;;1.10;99.90;;;;;;5135561;27;20176;-68
2023/12/04 03:36:06;;;;;;;11.87;10.67;;;1.10;99.90;;;;;;5135595;27;20152;-68
2023/12/04 03:38:32;;;;;;;14.43;11.10;;;1.20;99.90;;;;;;5135427;27;20287;-67
2023/12/04 03:40:58;;;;;;;13.80;11.00;;;1.20;99.90;;;;;;5117176;27;20639;-68
2023/12/04 03:43:23;;;;;;;14.40;12.10;;;1.20;99.90;;;;;;5117045;27;20205;-67
2023/12/04 03:45:49;;;;;;;12.63;11.33;;;1.30;99.90;;;;;;5117171;27;20282;-67
2023/12/04 03:48:15;;;;;;;13.87;12.47;;;1.30;99.90;;;;;;5135449;27;20204;-67
2023/12/04 03:50:41;;;;;;;14.73;11.53;;;1.30;99.90;;;;;;5135180;27;20240;-67
2023/12/04 03:53:06;;;;;;;12.53;11.23;;;1.30;99.90;;;;;;5135226;27;20251;-67
2023/12/04 03:55:32;;;;;;;12.53;10.70;;;1.30;99.90;;;;;;5134957;27;20235;-67
2023/12/04 03:57:59;;;;;;;11.00;9.97;;;1.30;99.90;;;;;;5135047;27;20198;-67
2023/12/04 04:00:25;;;;;;;12.30;10.80;;;1.40;99.90;;;;;;5135276;27;20180;-67
2023/12/04 04:02:50;;;;;;;13.33;11.73;;;1.40;99.90;;;;;;5135096;27;20184;-67
2023/12/04 04:05:16;;;;;;;12.10;10.90;;;1.30;99.90;;;;;;5116376;27;20203;-67
2023/12/04 04:07:42;;;;;;;15.60;12.13;;;1.30;99.90;;;;;;5116523;27;20200;-67
2023/12/04 04:10:09;;;;;;;12.67;11.47;;;1.40;99.90;;;;;;5134791;27;20230;-67
2023/12/04 04:12:34;;;;;;;12.33;11.13;;;1.40;99.90;;;;;;5116284;27;20184;-67
2023/12/04 04:15:00;;;;;;;12.93;11.60;;;1.40;99.90;;;;;;5134822;27;20215;-67
2023/12/04 04:17:26;;;;;;;13.70;12.20;;;1.40;99.90;;;;;;5134756;27;20192;-67
2023/12/04 04:19:53;;;;;;;12.00;10.80;;;1.40;99.90;;;;;;5116003;27;20186;-67
2023/12/04 04:22:22;;;;;;;12.93;11.70;;;1.40;99.90;;;;;;5116137;27;20208;-66
2023/12/04 04:24:49;;;;;;;17.07;10.87;;;1.40;99.90;;;;;;5135407;27;20510;-67
2023/12/04 04:27:15;;;;;;;11.57;10.27;;;1.50;99.90;;;;;;5134258;27;20295;-67
2023/12/04 04:29:41;;;;;;;12.53;11.33;;;1.50;99.90;;;;;;5134652;27;20638;-67
2023/12/04 04:32:07;;;;;;;13.73;12.43;;;1.50;99.90;;;;;;5134551;27;20182;-68
2023/12/04 04:34:33;;;;;;;12.67;11.40;;;1.50;99.90;;;;;;5134305;27;20230;-68
2023/12/04 04:36:58;;;;;;;12.20;10.90;;;1.50;99.90;;;;;;5134005;27;20215;-68
2023/12/04 04:39:24;;;;;;;12.83;11.37;;;1.40;99.90;;;;;;5115888;27;20678;-68
2023/12/04 04:41:50;;;;;;;12.80;11.20;;;1.40;99.90;;;;;;5134931;27;20164;-68
2023/12/04 04:44:16;;;;;;;12.10;10.90;;;1.40;99.90;;;;;;5134920;27;20180;-68
2023/12/04 04:46:42;;;;;;;13.17;11.43;;;1.40;99.90;;;;;;5134162;27;20196;-68
2023/12/04 04:49:07;;;;;;;12.33;10.83;;;1.40;99.90;;;;;;5134619;27;20594;-68
2023/12/04 04:51:34;;;;;;;11.80;10.70;;;1.40;99.90;;;;;;5134102;27;20658;-68
2023/12/04 04:54:03;;;;;;;12.00;10.87;;;1.40;99.90;;;;;;5134397;27;20196;-68
2023/12/04 04:56:29;;;;;;;12.17;10.93;;;1.40;99.90;;;;;;5134146;27;20206;-67
2023/12/04 04:58:56;;;;;;;12.87;10.97;;;1.30;99.90;;;;;;5134547;27;20167;-68
2023/12/04 05:01:21;;;;;;;12.03;10.80;;;1.30;99.90;;;;;;5134042;27;20549;-68
2023/12/04 05:03:47;;;;;;;10.90;9.90;;;1.30;99.90;;;;;;5134297;27;20167;-68
2023/12/04 05:06:14;;;;;;;12.47;11.33;;;1.30;99.90;;;;;;5133835;27;20172;-68
2023/12/04 05:08:40;;;;;;;12.63;11.27;;;1.30;99.90;;;;;;5115553;28;20199;-68
2023/12/04 05:11:05;;;;;;;12.37;11.10;;;1.30;99.90;;;;;;5134175;28;20307;-68
2023/12/04 05:13:31;;;;;;;12.10;11.00;;;1.30;99.90;;;;;;5134143;28;20311;-68
2023/12/04 05:15:57;;;;;;;12.80;11.50;;;1.30;99.90;;;;;;5133794;28;20215;-68
2023/12/04 05:18:23;;;;;;;11.70;10.60;;;1.20;99.90;;;;;;5115440;28;20200;-68
2023/12/04 05:20:49;;;;;;;11.50;10.40;;;1.20;99.90;;;;;;5133947;28;20178;-69
2023/12/04 05:23:14;;;;;;;11.67;10.57;;;1.10;99.90;;;;;;5115380;28;20231;-69
2023/12/04 05:25:40;;;;;;;12.23;11.03;;;1.10;99.90;;;;;;5115390;28;20195;-69
2023/12/04 05:28:06;;;;;;;12.90;11.37;;;1.10;99.90;;;;;;5133895;28;20545;-69
2023/12/04 05:30:32;;;;;;;13.33;11.40;;;1.00;99.90;;;;;;5133773;28;20259;-69
2023/12/04 05:32:58;;;;;;;10.77;9.87;;;1.00;99.90;;;;;;5133748;28;20187;-69
2023/12/04 05:35:23;;;;;;;11.67;10.47;;;1.00;99.90;;;;;;5133384;28;20210;-69
2023/12/04 05:37:49;;;;;;;11.77;10.67;;;1.10;99.90;;;;;;5116612;27;20620;-69
2023/12/04 05:40:15;;;;;;;11.33;10.23;;;1.10;99.90;;;;;;5137848;27;20183;-69
2023/12/04 05:42:41;;;;;;;11.67;10.57;;;1.00;99.90;;;;;;5119323;27;20175;-69
2023/12/04 05:45:07;;;;;;;11.10;10.00;;;1.10;99.90;;;;;;5137592;27;20187;-69
2023/12/04 05:47:34;;;;;;;10.70;9.70;;;1.00;99.90;;;;;;5137602;27;20206;-69
2023/12/04 05:50:00;;;;;;;11.60;10.50;;;1.10;99.90;;;;;;5137383;27;20182;-69
2023/12/04 05:52:26;;;;;;;10.80;9.80;;;1.10;99.90;;;;;;5119235;27;20655;-69
2023/12/04 05:54:52;;;;;;;11.63;10.43;;;1.10;99.90;;;;;;5137467;27;20280;-69
2023/12/04 05:57:18;;;;;;;11.27;10.37;;;1.00;99.90;;;;;;5118964;27;20578;-69
2023/12/04 05:59:44;;;;;;;11.20;10.30;;;1.10;99.90;;;;;;5137507;27;20538;-69
2023/12/04 06:02:09;;;;;;;10.60;9.57;;;1.10;99.90;;;;;;5137526;27;20168;-69
2023/12/04 06:04:35;;;;;;;11.33;10.33;;;1.10;99.90;;;;;;5137397;27;20210;-69
2023/12/04 06:07:01;;;;;;;11.30;10.10;;;1.10;99.90;;;;;;5137055;27;20206;-69
2023/12/04 06:09:27;;;;;;;11.30;10.27;;;1.20;99.90;;;;;;5137321;27;20191;-68
2023/12/04 06:11:53;;;;;;;10.93;10.03;;;1.20;99.90;;;;;;5137256;27;20172;-68
2023/12/04 06:14:18;;;;;;;11.10;10.13;;;1.20;99.90;;;;;;5137663;27;20253;-68
2023/12/04 06:16:44;;;;;;;10.63;9.70;;;1.30;99.90;;;;;;5137092;27;20226;-68
2023/12/04 06:19:10;;;;;;;11.70;10.70;;;1.30;99.90;;;;;;5137138;27;20240;-69
2023/12/04 06:21:36;;;;;;;11.93;10.73;;;1.30;99.90;;;;;;5136802;27;20168;-69
2023/12/04 06:24:02;;;;;;;11.43;10.43;;;1.30;99.90;;;;;;5137330;27;20164;-69
2023/12/04 06:26:31;;;;;;;11.20;10.13;;;1.30;99.90;;;;;;5136913;27;20552;-69
2023/12/04 06:28:57;;;;;;;10.97;9.97;;;1.40;99.90;;;;;;5118517;27;20643;-69
2023/12/04 06:31:23;;;;;;;10.67;9.70;;;1.40;99.90;;;;;;5118517;27;20179;-69
2023/12/04 06:33:49;;;;;;;11.10;10.00;;;1.40;99.90;;;;;;5137106;27;20172;-69
2023/12/04 06:36:17;;;;;;;11.03;10.03;;;1.40;99.90;;;;;;5118561;27;20179;-68
2023/12/04 06:38:45;;;;;;;11.33;10.23;;;1.30;99.90;;;;;;5137005;27;20207;-68
2023/12/04 06:41:12;;;;;;;10.70;9.90;;;1.30;99.90;;;;;;5136888;27;20176;-68
2023/12/04 06:43:38;;;;;;;10.53;9.53;;;1.30;99.90;;;;;;5136780;27;20634;-69
2023/12/04 06:46:05;;;;;;;10.73;9.87;;;1.30;99.90;;;;;;5136627;27;20203;-68
2023/12/04 06:48:32;;;;;;;10.93;9.90;;;1.30;99.90;;;;;;5136110;27;20203;-68
2023/12/04 06:50:58;;;;;;;11.40;10.40;;;1.30;99.90;;;;;;5136002;27;20211;-68
2023/12/04 06:53:23;;;;;;;11.30;10.30;;;1.40;99.90;;;;;;5136775;27;20187;-68
2023/12/04 06:55:49;;;;;;;10.57;9.60;;;1.40;99.90;;;;;;5118285;27;20235;-68
2023/12/04 06:58:15;;;;;;;11.60;10.50;;;1.40;99.90;;;;;;5137291;27;20192;-69
2023/12/04 07:00:40;;;;;;;12.00;10.80;;;1.40;99.90;;;;;;5118276;27;20258;-68
2023/12/04 07:03:06;;;;;;;10.97;9.97;;;1.40;99.90;;;;;;5136650;27;20262;-67
2023/12/04 07:05:32;;;;;;;10.77;9.80;;;1.40;99.90;;;;;;5117950;27;20232;-67
2023/12/04 07:07:58;;;;;;;9.97;9.07;;;1.40;99.90;;;;;;5136289;27;20707;-67
2023/12/04 07:10:24;;;;;;;11.13;10.03;;;1.40;99.90;;;;;;5136148;27;20642;-67
2023/12/04 07:12:49;;;;;;;11.23;10.07;;;1.30;99.90;;;;;;5117661;27;20319;-67
2023/12/04 07:15:15;;;;;;;9.80;8.97;;;1.30;99.90;;;;;;5136012;27;20687;-67
2023/12/04 07:17:41;;;;;;;10.30;9.30;;;1.40;99.90;;;;;;5136089;27;20615;-66
2023/12/04 07:20:07;;;;;;;9.77;8.77;;;1.40;99.90;;;;;;5135855;27;20175;-65
2023/12/04 07:22:33;;;;;;;10.07;9.07;;;1.40;99.90;;;;;;5136630;27;20179;-67
2023/12/04 07:24:59;;;;;;;10.03;9.03;;;1.50;99.90;;;;;;5117696;27;20267;-68
2023/12/04 07:27:25;;;;;;;9.63;8.73;;;1.40;99.90;;;;;;5135819;27;20689;-67
2023/12/04 07:29:51;;;;;;;10.27;9.37;;;1.50;99.90;;;;;;5135795;27;20210;-67
2023/12/04 07:32:19;;;;;;;10.23;9.23;;;1.40;99.90;;;;;;5117441;27;20212;-67
2023/12/04 07:34:45;;;;;;;9.80;8.90;;;1.40;99.90;;;;;;5135641;27;20278;-67
2023/12/04 07:37:11;;;;;;;10.07;9.13;;;1.50;99.90;;;;;;5135345;27;20292;-67
2023/12/04 07:39:37;;;;;;;9.97;9.07;;;1.50;99.90;;;;;;5135569;27;20175;-67
2023/12/04 07:42:03;;;;;;;9.57;8.67;;;1.50;99.90;;;;;;5135618;27;20217;-67
2023/12/04 07:44:30;;;;;;;10.60;9.57;;;1.50;99.90;;;;;;5136026;27;20176;-67
2023/12/04 07:46:55;;;;;;;9.87;8.87;;;1.60;99.90;;;;;;5135526;27;20207;-67
2023/12/04 07:49:21;;;;;;;10.10;9.10;;;1.60;99.90;;;;;;5135489;27;20186;-67
2023/12/04 07:51:47;;;;;;;10.17;9.33;;;1.60;99.90;;;;;;5116810;27;20228;-67
2023/12/04 07:54:13;;;;;;;9.53;8.63;;;1.60;99.90;;;;;;5116742;27;20290;-67
2023/12/04 07:56:39;;;;;;;9.77;8.97;;;1.60;99.90;;;;;;5116839;27;20553;-66
2023/12/04 07:59:04;;;;;;;9.90;8.97;;;1.60;99.90;;;;;;5116795;27;20180;-67
2023/12/04 08:01:30;;;;;;;10.23;9.13;;;1.60;99.90;;;;;;5135146;27;20172;-67
2023/12/04 08:03:56;;;;;;;9.40;8.60;;;1.60;99.90;;;;;;5135195;27;20168;-67
2023/12/04 08:06:22;;;;;;;9.30;8.40;;;1.60;99.90;;;;;;5135194;27;20179;-67
2023/12/04 08:08:47;;;;;;;9.67;8.87;;;1.60;99.90;;;;;;5135612;27;20195;-66
2023/12/04 08:11:13;;;;;;;9.60;8.80;;;1.60;99.90;;;;;;5135165;27;20172;-67
2023/12/04 08:13:39;;;;;;;9.87;8.87;;;1.60;99.90;;;;;;5135187;27;20168;-67
2023/12/04 08:16:12;;;;;;;10.50;9.43;;;1.60;99.90;;;;;;5116469;27;20211;-67
2023/12/04 08:18:38;;;;;;;9.97;9.17;;;1.60;99.90;;;;;;5134948;27;20199;-66
2023/12/04 08:21:04;;;;;;;10.23;9.23;;;1.60;99.90;;;;;;5135032;27;20171;-66
2023/12/04 08:23:30;;;;;;;9.47;8.57;;;1.70;99.90;;;;;;5135113;27;20224;-67
2023/12/04 08:25:57;;;;;;;9.40;8.60;;;1.70;99.90;;;;;;5134852;27;20550;-67
2023/12/04 08:28:22;;;;;;;10.10;9.10;;;1.70;99.90;;;;;;5116355;27;20230;-66
2023/12/04 08:30:48;;;;;;;9.77;8.87;;;1.70;99.90;;;;;;5134771;27;20184;-67
2023/12/04 08:33:14;;;;;;;9.63;8.73;;;1.70;99.90;;;;;;5134644;27;20309;-67
2023/12/04 08:35:40;;;;;;;9.87;8.90;;;1.70;99.90;;;;;;5134330;27;20211;-67
2023/12/04 08:38:06;;;;;;;9.50;8.60;;;1.70;99.90;;;;;;5134599;27;20191;-66
2023/12/04 08:40:32;;;;;;;9.83;8.83;;;1.80;99.90;;;;;;5134698;27;20259;-66
2023/12/04 08:42:58;;;;;;;9.67;8.70;;;1.90;99.90;;;;;;5116368;27;20258;-66
2023/12/04 08:45:24;;;;;;;9.30;8.53;;;1.90;99.90;;;;;;5134745;27;20233;-67
2023/12/04 08:47:50;;;;;;;9.30;8.40;;;2.00;99.90;;;;;;5135240;27;20195;-67
2023/12/04 08:50:16;;;;;;;9.90;9.00;;;1.90;99.90;;;;;;5134694;27;20641;-66
2023/12/04 08:52:42;;;;;;;10.77;9.30;;;1.90;99.90;;;;;;5134444;27;20179;-67
2023/12/04 08:55:10;;;;;;;10.20;8.97;;;1.90;99.90;;;;;;5134572;27;20687;-66
2023/12/04 08:57:35;;;;;;;10.10;9.10;;;1.90;99.90;;;;;;5115857;28;20215;-66
2023/12/04 09:00:03;;;;;;;10.27;9.37;;;2.10;99.90;;;;;;5134830;27;20226;-66
2023/12/04 09:02:29;;;;;;;9.57;8.57;;;2.10;99.90;;;;;;5134620;27;20164;-67
2023/12/04 09:04:55;;;;;;;10.07;9.17;;;2.20;99.90;;;;;;5134231;27;20183;-67
2023/12/04 09:07:20;;;;;;;10.27;9.17;;;2.20;99.90;;;;;;5115629;28;20208;-66
2023/12/04 09:09:46;;;;;;;9.40;8.50;;;2.20;99.90;;;;;;5115648;28;20192;-67
2023/12/04 09:12:12;;;;;;;10.07;9.00;;;2.20;99.90;;;;;;5115184;28;20206;-67
2023/12/04 09:14:38;;;;;;;9.63;8.77;;;2.20;99.90;;;;;;5134308;28;20203;-67
2023/12/04 09:17:04;;;;;;;9.73;8.83;;;2.30;99.90;;;;;;5115661;28;20195;-67
2023/12/04 09:19:30;;;;;;;9.93;8.90;;;2.30;99.90;;;;;;5134144;28;20626;-67
2023/12/04 09:21:57;;;;;;;9.53;8.73;;;2.30;99.90;;;;;;5133787;28;20236;-67
2023/12/04 09:24:23;;;;;;;8.87;8.07;;;2.30;99.90;;;;;;5133896;28;20186;-67
2023/12/04 09:26:49;;;;;;;9.87;8.87;;;2.20;99.90;;;;;;5134173;28;20194;-66
2023/12/04 09:29:16;;;;;;;10.03;9.00;;;2.30;99.90;;;;;;5115443;28;20183;-67
2023/12/04 09:31:42;;;;;;;10.13;9.13;;;2.20;99.90;;;;;;5134174;28;20203;-67
2023/12/04 09:34:09;;;;;;;9.73;8.77;;;2.20;99.90;;;;;;5115695;28;20203;-67
2023/12/04 09:36:34;;;;;;;10.53;9.53;;;2.20;99.90;;;;;;5115044;28;20176;-67
2023/12/04 09:39:00;;;;;;;9.10;8.20;;;2.30;99.90;;;;;;5115613;28;20673;-66
2023/12/04 09:41:27;;;;;;;9.77;8.87;;;2.30;99.90;;;;;;5134695;28;20522;-67
2023/12/04 09:43:53;;;;;;;9.80;8.90;;;2.30;99.90;;;;;;5134077;28;20172;-67
2023/12/04 09:46:19;;;;;;;9.43;8.57;;;2.20;99.90;;;;;;5115164;28;20662;-66
2023/12/04 09:48:46;;;;;;;9.93;8.97;;;2.30;99.90;;;;;;5134044;28;20211;-66
2023/12/04 09:51:14;;;;;;;10.50;9.50;;;2.30;99.90;;;;;;5133619;28;20186;-66
2023/12/04 09:53:41;;;;;;;10.40;9.30;;;2.30;99.90;;;;;;5133699;28;20168;-66
2023/12/04 09:56:09;;;;;;;10.13;9.17;;;2.30;99.90;;;;;;5133734;28;20661;-66
2023/12/04 09:58:39;;;;;;;10.20;9.20;;;2.30;99.90;;;;;;5133530;28;20192;-67
2023/12/04 10:01:07;;;;;;;11.23;10.17;;;2.30;99.90;;;;;;5134179;28;20240;-67
2023/12/04 10:03:34;;;;;;;9.37;8.47;;;2.30;99.90;;;;;;5133651;28;20213;-67
2023/12/04 10:06:00;;;;;;;10.00;9.10;;;2.30;99.90;;;;;;5133381;28;20626;-67
2023/12/04 10:08:25;;;;;;;10.77;9.73;;;2.30;99.90;;;;;;5133432;28;20255;-67
2023/12/04 10:10:51;;;;;;;11.77;10.07;;;2.40;99.90;;;;;;5115310;28;20179;-68
2023/12/04 10:13:17;;;;;;;9.63;8.63;;;2.30;99.90;;;;;;5115077;28;20260;-67
2023/12/04 10:15:50;;;;;;;10.33;9.30;;;2.40;99.90;;;;;;5133727;28;20352;-67
2023/12/04 10:18:34;;;;;;;12.67;9.60;;;2.40;99.90;;;;;;5115194;28;20306;-68
2023/12/04 10:21:02;;;;;;;10.47;9.20;;;2.40;99.90;;;;;;5133567;28;20700;-67
2023/12/04 10:23:42;;;;;;;9.90;8.93;;;2.40;99.90;;;;;;5134314;27;20195;-68
2023/12/04 10:26:08;;;;;;;9.73;8.80;;;2.50;99.90;;;;;;5137516;27;20164;-68
2023/12/04 10:28:35;;;;;;;9.83;8.93;;;2.50;99.90;;;;;;5137596;27;20278;-68
2023/12/04 10:31:01;;;;;;;10.47;9.47;;;2.60;99.90;;;;;;5118721;27;20266;-67
2023/12/04 10:33:29;;;;;;;9.83;8.90;;;2.60;99.90;;;;;;5137093;27;20652;-67
2023/12/04 10:35:57;;;;;;;9.63;8.63;;;2.60;99.90;;;;;;5118111;27;20196;-67
2023/12/04 10:38:23;;;;;;;10.63;9.50;;;2.70;99.90;;;;;;5118256;27;20290;-67
2023/12/04 10:40:49;;;;;;;10.40;9.40;;;2.70;99.90;;;;;;5136658;27;20192;-67
2023/12/04 10:43:22;;;;;;;9.97;9.07;;;2.80;99.90;;;;;;5136729;27;20171;-68
2023/12/04 10:45:49;;;;;;;10.17;9.20;;;2.80;99.90;;;;;;5136445;27;20195;-68
2023/12/04 10:48:17;;;;;;;10.40;9.40;;;2.80;99.90;;;;;;5136545;27;20685;-68
2023/12/04 10:50:47;;;;;;;8.87;8.17;;;2.90;99.90;;;;;;5137098;27;20532;-68
2023/12/04 10:53:14;;;;;;;9.50;8.60;;;2.90;99.90;;;;;;5136695;27;20245;-68
2023/12/04 10:55:41;;;;;;;9.73;8.83;;;3.00;99.90;;;;;;5136601;27;20198;-68
2023/12/04 10:58:12;;;;;;;9.63;8.73;;;3.00;99.90;;;;;;5136217;27;20191;-67
2023/12/04 11:00:45;;;;;;;9.50;8.60;;;3.00;99.90;;;;;;5136628;27;20581;-67
2023/12/04 11:03:34;;;;;;;9.83;8.93;;;3.00;99.90;;;;;;5136718;27;20503;-68
2023/12/04 11:06:02;;;;;;;9.93;9.03;;;3.00;99.90;;;;;;5117359;27;20638;-67
2023/12/04 11:08:36;;;;;;;9.27;8.47;;;3.00;99.90;;;;;;5136141;27;20287;-68
2023/12/04 11:11:06;;;;;;;10.83;9.17;;;3.00;99.90;;;;;;5136810;27;20530;-68
2023/12/04 11:13:34;;;;;;;10.33;9.33;;;3.10;99.90;;;;;;5136360;27;20540;-68
2023/12/04 11:16:03;;;;;;;10.13;9.23;;;3.00;99.90;;;;;;5136002;27;20665;-68
2023/12/04 11:18:36;;;;;;;11.57;9.63;;;3.00;99.90;;;;;;5136040;27;20223;-67
2023/12/04 11:21:09;;;;;;;10.30;9.30;;;3.00;99.90;;;;;;5135728;27;20190;-67
2023/12/04 11:23:35;;;;;;;9.93;8.93;;;3.00;99.90;;;;;;5117481;27;20179;-67
2023/12/04 11:26:03;;;;;;;10.47;9.17;;;3.00;99.90;;;;;;5136056;27;20171;-67
2023/12/04 11:28:31;;;;;;;11.40;9.17;;;3.00;99.90;;;;;;5117247;27;20199;-67
2023/12/04 11:30:58;;;;;;;11.43;10.27;;;3.00;99.90;;;;;;5135767;27;20187;-67
2023/12/04 11:33:24;;;;;;;10.83;9.73;;;3.00;99.90;;;;;;5136259;27;20168;-67
2023/12/04 11:35:51;;;;;;;10.77;9.70;;;3.00;99.90;;;;;;5134936;27;20260;-67
2023/12/04 11:38:19;;;;;;;11.60;10.40;;;3.00;99.90;;;;;;5135286;27;20199;-67
2023/12/04 11:40:48;;;;;;;12.10;10.67;;;2.90;99.90;;;;;;5135554;27;20179;-67
2023/12/04 11:43:25;;;;;;;11.80;10.60;;;2.90;99.90;;;;;;5117150;27;20266;-67
2023/12/04 11:45:51;;;;;;;12.33;10.43;;;2.80;99.90;;;;;;5135455;27;20202;-66
2023/12/04 11:48:23;;;;;;;11.37;10.20;;;2.80;99.90;;;;;;5135513;27;20733;-67
2023/12/04 11:50:50;;;;;;;12.83;10.20;;;2.80;99.90;;;;;;5135455;27;20163;-67
2023/12/04 11:53:16;;;;;;;10.90;9.57;;;2.80;99.90;;;;;;5135074;27;20171;-67
2023/12/04 11:55:42;;;;;;;11.97;10.77;;;2.80;99.90;;;;;;5135226;27;20203;-67
2023/12/04 11:58:11;;;;;;;11.60;10.30;;;2.80;99.90;;;;;;5135758;27;20196;-67
2023/12/04 12:00:38;;;;;;;11.80;10.70;;;2.80;99.90;;;;;;5135536;27;20541;-68
2023/12/04 12:03:06;;;;;;;12.07;10.80;;;2.80;99.90;;;;;;5135415;27;20665;-67
2023/12/04 12:05:33;;;;;;;11.57;10.47;;;2.80;99.90;;;;;;5116605;27;20181;-67
2023/12/04 12:08:06;;;;;;;11.40;10.30;;;2.80;99.90;;;;;;5134708;27;20658;-67
2023/12/04 12:10:33;;;;;;;11.70;10.50;;;2.80;99.90;;;;;;5134900;27;20186;-67
2023/12/04 12:12:59;;;;;;;12.33;10.90;;;2.90;99.90;;;;;;5116499;27;20232;-67
2023/12/04 12:15:25;;;;;;;12.20;11.03;;;2.90;99.90;;;;;;5134857;27;20195;-67
2023/12/04 12:17:51;;;;;;;12.10;10.93;;;2.80;99.90;;;;;;5135403;27;20276;-67
2023/12/04 12:20:18;;;;;;;12.67;10.80;;;2.80;99.90;;;;;;5134872;27;20661;-67
2023/12/04 12:22:44;;;;;;;12.57;10.97;;;2.80;99.90;;;;;;5134641;27;20171;-67
2023/12/04 12:25:11;;;;;;;12.43;10.80;;;2.80;99.90;;;;;;5134742;27;20633;-67
2023/12/04 12:27:37;;;;;;;11.83;10.63;;;2.90;99.90;;;;;;5134669;27;20199;-68
2023/12/04 12:30:04;;;;;;;12.40;11.20;;;2.90;99.90;;;;;;5134665;27;20287;-67
2023/12/04 12:32:34;;;;;;;13.33;10.97;;;3.00;99.90;;;;;;5134607;27;20176;-68
2023/12/04 12:35:00;;;;;;;12.93;11.53;;;2.90;99.90;;;;;;5134560;27;20221;-67
2023/12/04 12:37:26;;;;;;;15.30;12.00;;;2.80;99.90;;;;;;5134660;27;20195;-67
2023/12/04 12:39:52;;;;;;;13.40;10.80;;;2.80;99.90;;;;;;5134720;27;20184;-67